sensor_id;sensor_type;location;lat;lon;timestamp;P1;durP1;ratioP1;P2;durP2;ratioP2
68886;SDS011;55925;51.764;6.402;2023-04-29T00:01:59;87.78;;;29.23;;
68886;SDS011;55925;51.764;6.402;2023-04-29T00:04:25;88.95;;;28.55;;
68886;SDS011;55925;51.764;6.402;2023-04-29T00:06:51;82.68;;;29.52;;
68886;SDS011;55925;51.764;6.402;2023-04-29T00:09:17;71.10;;;27.50;;
68886;SDS011;55925;51.764;6.402;2023-04-29T00:11:43;73.40;;;26.45;;
68886;SDS011;55925;51.764;6.402;2023-04-29T00:14:11;68.70;;;26.23;;
68886;SDS011;55925;51.764;6.402;2023-04-29T00:16:37;63.20;;;24.58;;
68886;SDS011;55925;51.764;6.402;2023-04-29T00:19:03;67.68;;;25.55;;
68886;SDS011;55925;51.764;6.402;2023-04-29T00:21:29;62.00;;;23.52;;
68886;SDS011;55925;51.764;6.402;2023-04-29T00:23:56;62.10;;;23.17;;
68886;SDS011;55925;51.764;6.402;2023-04-29T00:26:22;54.53;;;22.17;;
68886;SDS011;55925;51.764;6.402;2023-04-29T00:28:48;53.78;;;21.75;;
68886;SDS011;55925;51.764;6.402;2023-04-29T00:31:14;50.42;;;22.33;;
68886;SDS011;55925;51.764;6.402;2023-04-29T00:33:40;58.80;;;21.35;;
68886;SDS011;55925;51.764;6.402;2023-04-29T00:36:07;46.35;;;20.15;;
68886;SDS011;55925;51.764;6.402;2023-04-29T00:38:33;48.70;;;20.38;;
68886;SDS011;55925;51.764;6.402;2023-04-29T00:40:59;50.95;;;21.58;;
68886;SDS011;55925;51.764;6.402;2023-04-29T00:43:26;54.83;;;21.35;;
68886;SDS011;55925;51.764;6.402;2023-04-29T00:45:52;51.85;;;21.00;;
68886;SDS011;55925;51.764;6.402;2023-04-29T00:48:18;50.75;;;20.75;;
68886;SDS011;55925;51.764;6.402;2023-04-29T00:50:44;47.25;;;20.60;;
68886;SDS011;55925;51.764;6.402;2023-04-29T00:53:10;47.03;;;18.88;;
68886;SDS011;55925;51.764;6.402;2023-04-29T00:55:40;50.20;;;20.23;;
68886;SDS011;55925;51.764;6.402;2023-04-29T00:58:07;45.10;;;17.75;;
68886;SDS011;55925;51.764;6.402;2023-04-29T01:00:34;45.15;;;19.50;;
68886;SDS011;55925;51.764;6.402;2023-04-29T01:03:01;45.22;;;18.42;;
68886;SDS011;55925;51.764;6.402;2023-04-29T01:05:28;49.63;;;18.77;;
68886;SDS011;55925;51.764;6.402;2023-04-29T01:10:31;41.60;;;17.95;;
68886;SDS011;55925;51.764;6.402;2023-04-29T01:15:42;47.10;;;19.55;;
68886;SDS011;55925;51.764;6.402;2023-04-29T01:18:17;44.90;;;18.73;;
68886;SDS011;55925;51.764;6.402;2023-04-29T01:20:44;50.28;;;19.35;;
68886;SDS011;55925;51.764;6.402;2023-04-29T01:23:11;47.20;;;18.85;;
68886;SDS011;55925;51.764;6.402;2023-04-29T01:25:37;42.15;;;18.48;;
68886;SDS011;55925;51.764;6.402;2023-04-29T01:31:03;45.03;;;18.33;;
68886;SDS011;55925;51.764;6.402;2023-04-29T01:38:59;46.05;;;17.50;;
68886;SDS011;55925;51.764;6.402;2023-04-29T01:43:57;41.00;;;15.98;;
68886;SDS011;55925;51.764;6.402;2023-04-29T01:46:24;41.30;;;15.95;;
68886;SDS011;55925;51.764;6.402;2023-04-29T01:48:53;48.28;;;19.30;;
68886;SDS011;55925;51.764;6.402;2023-04-29T01:51:19;48.75;;;19.20;;
68886;SDS011;55925;51.764;6.402;2023-04-29T01:53:45;42.90;;;17.27;;
68886;SDS011;55925;51.764;6.402;2023-04-29T01:56:12;46.20;;;17.42;;
68886;SDS011;55925;51.764;6.402;2023-04-29T01:58:38;48.08;;;18.60;;
68886;SDS011;55925;51.764;6.402;2023-04-29T02:01:04;47.83;;;18.70;;
68886;SDS011;55925;51.764;6.402;2023-04-29T02:03:30;45.20;;;18.20;;
68886;SDS011;55925;51.764;6.402;2023-04-29T02:05:56;53.20;;;19.25;;
68886;SDS011;55925;51.764;6.402;2023-04-29T02:08:23;43.10;;;17.48;;
68886;SDS011;55925;51.764;6.402;2023-04-29T02:10:52;47.08;;;17.85;;
68886;SDS011;55925;51.764;6.402;2023-04-29T02:13:18;42.78;;;18.33;;
68886;SDS011;55925;51.764;6.402;2023-04-29T02:15:44;42.90;;;18.40;;
68886;SDS011;55925;51.764;6.402;2023-04-29T02:18:10;50.03;;;18.45;;
68886;SDS011;55925;51.764;6.402;2023-04-29T02:20:36;47.17;;;19.25;;
68886;SDS011;55925;51.764;6.402;2023-04-29T02:23:02;46.35;;;18.13;;
68886;SDS011;55925;51.764;6.402;2023-04-29T02:25:29;38.75;;;16.13;;
68886;SDS011;55925;51.764;6.402;2023-04-29T02:27:55;50.20;;;17.20;;
68886;SDS011;55925;51.764;6.402;2023-04-29T02:30:21;40.92;;;16.83;;
68886;SDS011;55925;51.764;6.402;2023-04-29T02:32:47;45.80;;;18.50;;
68886;SDS011;55925;51.764;6.402;2023-04-29T02:35:13;43.33;;;16.38;;
68886;SDS011;55925;51.764;6.402;2023-04-29T02:37:39;41.75;;;16.42;;
68886;SDS011;55925;51.764;6.402;2023-04-29T02:40:05;40.53;;;15.82;;
68886;SDS011;55925;51.764;6.402;2023-04-29T02:42:31;41.92;;;17.65;;
68886;SDS011;55925;51.764;6.402;2023-04-29T02:44:57;38.90;;;15.32;;
68886;SDS011;55925;51.764;6.402;2023-04-29T02:47:23;44.90;;;18.15;;
68886;SDS011;55925;51.764;6.402;2023-04-29T02:49:49;46.25;;;18.13;;
68886;SDS011;55925;51.764;6.402;2023-04-29T02:52:15;42.85;;;18.00;;
68886;SDS011;55925;51.764;6.402;2023-04-29T02:54:42;47.47;;;17.83;;
68886;SDS011;55925;51.764;6.402;2023-04-29T02:57:08;37.90;;;16.83;;
68886;SDS011;55925;51.764;6.402;2023-04-29T02:59:35;41.08;;;16.50;;
68886;SDS011;55925;51.764;6.402;2023-04-29T03:02:01;44.08;;;17.05;;
68886;SDS011;55925;51.764;6.402;2023-04-29T03:04:27;43.65;;;17.98;;
68886;SDS011;55925;51.764;6.402;2023-04-29T03:06:54;46.40;;;19.42;;
68886;SDS011;55925;51.764;6.402;2023-04-29T03:09:21;36.95;;;15.70;;
68886;SDS011;55925;51.764;6.402;2023-04-29T03:11:47;41.03;;;16.98;;
68886;SDS011;55925;51.764;6.402;2023-04-29T03:14:13;39.83;;;17.52;;
68886;SDS011;55925;51.764;6.402;2023-04-29T03:16:39;45.22;;;18.67;;
68886;SDS011;55925;51.764;6.402;2023-04-29T03:19:05;41.60;;;17.08;;
68886;SDS011;55925;51.764;6.402;2023-04-29T03:21:31;39.80;;;17.17;;
68886;SDS011;55925;51.764;6.402;2023-04-29T03:23:57;41.33;;;15.38;;
68886;SDS011;55925;51.764;6.402;2023-04-29T03:26:23;37.13;;;16.08;;
68886;SDS011;55925;51.764;6.402;2023-04-29T03:28:50;36.15;;;16.13;;
68886;SDS011;55925;51.764;6.402;2023-04-29T03:31:16;36.25;;;15.82;;
68886;SDS011;55925;51.764;6.402;2023-04-29T03:33:42;39.65;;;15.70;;
68886;SDS011;55925;51.764;6.402;2023-04-29T03:36:08;38.88;;;15.93;;
68886;SDS011;55925;51.764;6.402;2023-04-29T03:38:34;34.95;;;15.00;;
68886;SDS011;55925;51.764;6.402;2023-04-29T03:41:00;32.08;;;14.50;;
68886;SDS011;55925;51.764;6.402;2023-04-29T03:43:27;36.05;;;16.05;;
68886;SDS011;55925;51.764;6.402;2023-04-29T03:45:53;38.88;;;16.08;;
68886;SDS011;55925;51.764;6.402;2023-04-29T03:48:19;36.83;;;15.40;;
68886;SDS011;55925;51.764;6.402;2023-04-29T03:50:45;37.30;;;15.40;;
68886;SDS011;55925;51.764;6.402;2023-04-29T03:53:12;36.42;;;14.48;;
68886;SDS011;55925;51.764;6.402;2023-04-29T03:55:38;37.40;;;15.18;;
68886;SDS011;55925;51.764;6.402;2023-04-29T03:58:04;32.50;;;14.40;;
68886;SDS011;55925;51.764;6.402;2023-04-29T04:00:30;33.38;;;13.88;;
68886;SDS011;55925;51.764;6.402;2023-04-29T04:02:57;30.80;;;13.40;;
68886;SDS011;55925;51.764;6.402;2023-04-29T04:05:23;30.35;;;14.35;;
68886;SDS011;55925;51.764;6.402;2023-04-29T04:07:50;32.22;;;14.20;;
68886;SDS011;55925;51.764;6.402;2023-04-29T04:10:17;31.75;;;13.85;;
68886;SDS011;55925;51.764;6.402;2023-04-29T04:12:44;30.60;;;13.75;;
68886;SDS011;55925;51.764;6.402;2023-04-29T04:15:11;29.58;;;13.20;;
68886;SDS011;55925;51.764;6.402;2023-04-29T04:17:37;29.83;;;13.68;;
68886;SDS011;55925;51.764;6.402;2023-04-29T04:20:03;32.53;;;13.77;;
68886;SDS011;55925;51.764;6.402;2023-04-29T04:22:29;35.97;;;15.00;;
68886;SDS011;55925;51.764;6.402;2023-04-29T04:24:55;31.40;;;14.18;;
68886;SDS011;55925;51.764;6.402;2023-04-29T04:27:21;28.77;;;13.20;;
68886;SDS011;55925;51.764;6.402;2023-04-29T04:29:47;30.63;;;12.10;;
68886;SDS011;55925;51.764;6.402;2023-04-29T04:32:17;29.65;;;13.80;;
68886;SDS011;55925;51.764;6.402;2023-04-29T04:34:43;31.70;;;14.98;;
68886;SDS011;55925;51.764;6.402;2023-04-29T04:37:09;29.67;;;13.57;;
68886;SDS011;55925;51.764;6.402;2023-04-29T04:39:36;30.77;;;14.73;;
68886;SDS011;55925;51.764;6.402;2023-04-29T04:42:03;30.80;;;15.07;;
68886;SDS011;55925;51.764;6.402;2023-04-29T04:44:29;32.83;;;13.90;;
68886;SDS011;55925;51.764;6.402;2023-04-29T04:46:55;29.83;;;14.55;;
68886;SDS011;55925;51.764;6.402;2023-04-29T04:49:24;31.95;;;14.20;;
68886;SDS011;55925;51.764;6.402;2023-04-29T04:51:51;31.75;;;13.48;;
68886;SDS011;55925;51.764;6.402;2023-04-29T04:54:17;30.42;;;15.30;;
68886;SDS011;55925;51.764;6.402;2023-04-29T04:56:43;32.95;;;14.88;;
68886;SDS011;55925;51.764;6.402;2023-04-29T04:59:09;28.27;;;13.63;;
68886;SDS011;55925;51.764;6.402;2023-04-29T05:01:35;31.95;;;14.10;;
68886;SDS011;55925;51.764;6.402;2023-04-29T05:04:01;32.20;;;14.43;;
68886;SDS011;55925;51.764;6.402;2023-04-29T05:06:27;31.10;;;13.63;;
68886;SDS011;55925;51.764;6.402;2023-04-29T05:08:53;29.85;;;14.38;;
68886;SDS011;55925;51.764;6.402;2023-04-29T05:11:20;31.58;;;14.38;;
68886;SDS011;55925;51.764;6.402;2023-04-29T05:13:46;27.98;;;13.95;;
68886;SDS011;55925;51.764;6.402;2023-04-29T05:16:12;31.88;;;15.98;;
68886;SDS011;55925;51.764;6.402;2023-04-29T05:18:38;30.23;;;14.60;;
68886;SDS011;55925;51.764;6.402;2023-04-29T05:21:05;28.38;;;14.02;;
68886;SDS011;55925;51.764;6.402;2023-04-29T05:23:31;30.52;;;13.77;;
68886;SDS011;55925;51.764;6.402;2023-04-29T05:25:57;32.75;;;13.50;;
68886;SDS011;55925;51.764;6.402;2023-04-29T05:28:23;28.58;;;12.55;;
68886;SDS011;55925;51.764;6.402;2023-04-29T05:30:49;26.92;;;12.55;;
68886;SDS011;55925;51.764;6.402;2023-04-29T05:33:16;29.58;;;13.60;;
68886;SDS011;55925;51.764;6.402;2023-04-29T05:35:42;24.70;;;12.38;;
68886;SDS011;55925;51.764;6.402;2023-04-29T05:38:08;31.73;;;13.77;;
68886;SDS011;55925;51.764;6.402;2023-04-29T05:40:34;28.65;;;13.50;;
68886;SDS011;55925;51.764;6.402;2023-04-29T05:43:00;27.40;;;13.25;;
68886;SDS011;55925;51.764;6.402;2023-04-29T05:45:26;28.73;;;13.43;;
68886;SDS011;55925;51.764;6.402;2023-04-29T05:47:53;32.33;;;14.55;;
68886;SDS011;55925;51.764;6.402;2023-04-29T05:50:19;25.73;;;13.18;;
68886;SDS011;55925;51.764;6.402;2023-04-29T05:52:45;27.40;;;13.07;;
68886;SDS011;55925;51.764;6.402;2023-04-29T05:55:11;27.48;;;12.70;;
68886;SDS011;55925;51.764;6.402;2023-04-29T05:57:37;29.80;;;13.75;;
68886;SDS011;55925;51.764;6.402;2023-04-29T06:00:03;26.52;;;13.65;;
68886;SDS011;55925;51.764;6.402;2023-04-29T06:02:30;27.55;;;14.40;;
68886;SDS011;55925;51.764;6.402;2023-04-29T06:04:57;27.77;;;13.77;;
68886;SDS011;55925;51.764;6.402;2023-04-29T06:07:24;28.27;;;13.55;;
68886;SDS011;55925;51.764;6.402;2023-04-29T06:09:50;27.40;;;14.10;;
68886;SDS011;55925;51.764;6.402;2023-04-29T06:12:16;27.35;;;12.02;;
68886;SDS011;55925;51.764;6.402;2023-04-29T06:14:42;25.20;;;12.73;;
68886;SDS011;55925;51.764;6.402;2023-04-29T06:17:08;27.52;;;13.73;;
68886;SDS011;55925;51.764;6.402;2023-04-29T06:19:35;28.70;;;13.07;;
68886;SDS011;55925;51.764;6.402;2023-04-29T06:22:01;24.52;;;12.40;;
68886;SDS011;55925;51.764;6.402;2023-04-29T06:24:27;25.27;;;12.57;;
68886;SDS011;55925;51.764;6.402;2023-04-29T06:26:53;26.80;;;12.88;;
68886;SDS011;55925;51.764;6.402;2023-04-29T06:29:19;24.55;;;13.20;;
68886;SDS011;55925;51.764;6.402;2023-04-29T06:31:45;25.63;;;13.25;;
68886;SDS011;55925;51.764;6.402;2023-04-29T06:34:11;27.55;;;13.80;;
68886;SDS011;55925;51.764;6.402;2023-04-29T06:36:37;27.20;;;13.30;;
68886;SDS011;55925;51.764;6.402;2023-04-29T06:39:03;27.45;;;12.88;;
68886;SDS011;55925;51.764;6.402;2023-04-29T06:41:29;25.25;;;13.82;;
68886;SDS011;55925;51.764;6.402;2023-04-29T06:43:56;30.75;;;14.18;;
68886;SDS011;55925;51.764;6.402;2023-04-29T06:46:22;26.90;;;13.75;;
68886;SDS011;55925;51.764;6.402;2023-04-29T06:48:48;28.10;;;12.80;;
68886;SDS011;55925;51.764;6.402;2023-04-29T06:51:13;25.48;;;12.65;;
68886;SDS011;55925;51.764;6.402;2023-04-29T06:53:40;28.08;;;13.07;;
68886;SDS011;55925;51.764;6.402;2023-04-29T06:56:06;28.70;;;14.25;;
68886;SDS011;55925;51.764;6.402;2023-04-29T06:58:32;29.65;;;15.00;;
68886;SDS011;55925;51.764;6.402;2023-04-29T07:00:58;30.88;;;14.30;;
68886;SDS011;55925;51.764;6.402;2023-04-29T07:03:24;29.92;;;13.88;;
68886;SDS011;55925;51.764;6.402;2023-04-29T07:05:51;29.38;;;14.90;;
68886;SDS011;55925;51.764;6.402;2023-04-29T07:08:17;26.00;;;12.20;;
68886;SDS011;55925;51.764;6.402;2023-04-29T07:10:43;31.33;;;14.73;;
68886;SDS011;55925;51.764;6.402;2023-04-29T07:13:09;28.88;;;14.55;;
68886;SDS011;55925;51.764;6.402;2023-04-29T07:15:36;29.05;;;13.57;;
68886;SDS011;55925;51.764;6.402;2023-04-29T07:18:02;31.25;;;15.80;;
68886;SDS011;55925;51.764;6.402;2023-04-29T07:20:29;25.67;;;14.30;;
68886;SDS011;55925;51.764;6.402;2023-04-29T07:22:55;29.77;;;14.65;;
68886;SDS011;55925;51.764;6.402;2023-04-29T07:25:21;27.30;;;14.20;;
68886;SDS011;55925;51.764;6.402;2023-04-29T07:27:47;29.30;;;15.40;;
68886;SDS011;55925;51.764;6.402;2023-04-29T07:30:13;28.08;;;14.23;;
68886;SDS011;55925;51.764;6.402;2023-04-29T07:32:39;33.38;;;16.23;;
68886;SDS011;55925;51.764;6.402;2023-04-29T07:35:05;25.92;;;13.73;;
68886;SDS011;55925;51.764;6.402;2023-04-29T07:37:32;31.05;;;14.75;;
68886;SDS011;55925;51.764;6.402;2023-04-29T07:39:58;26.98;;;14.07;;
68886;SDS011;55925;51.764;6.402;2023-04-29T07:42:24;29.15;;;14.10;;
68886;SDS011;55925;51.764;6.402;2023-04-29T07:44:50;26.50;;;13.70;;
68886;SDS011;55925;51.764;6.402;2023-04-29T07:47:16;28.08;;;14.65;;
68886;SDS011;55925;51.764;6.402;2023-04-29T07:49:42;27.50;;;14.85;;
68886;SDS011;55925;51.764;6.402;2023-04-29T07:52:08;25.92;;;13.45;;
68886;SDS011;55925;51.764;6.402;2023-04-29T07:54:35;31.92;;;14.50;;
68886;SDS011;55925;51.764;6.402;2023-04-29T07:57:01;24.45;;;13.32;;
68886;SDS011;55925;51.764;6.402;2023-04-29T07:59:29;25.42;;;13.88;;
68886;SDS011;55925;51.764;6.402;2023-04-29T08:01:55;27.50;;;13.95;;
68886;SDS011;55925;51.764;6.402;2023-04-29T08:04:21;25.45;;;12.90;;
68886;SDS011;55925;51.764;6.402;2023-04-29T08:06:47;29.13;;;14.38;;
68886;SDS011;55925;51.764;6.402;2023-04-29T08:09:14;27.33;;;14.45;;
68886;SDS011;55925;51.764;6.402;2023-04-29T08:11:40;26.30;;;13.63;;
68886;SDS011;55925;51.764;6.402;2023-04-29T08:14:06;24.10;;;13.20;;
68886;SDS011;55925;51.764;6.402;2023-04-29T08:16:32;30.52;;;14.55;;
68886;SDS011;55925;51.764;6.402;2023-04-29T08:18:58;25.20;;;13.95;;
68886;SDS011;55925;51.764;6.402;2023-04-29T08:21:24;26.02;;;13.45;;
68886;SDS011;55925;51.764;6.402;2023-04-29T08:23:51;25.83;;;13.57;;
68886;SDS011;55925;51.764;6.402;2023-04-29T08:26:18;24.52;;;13.85;;
68886;SDS011;55925;51.764;6.402;2023-04-29T08:28:44;23.92;;;13.57;;
68886;SDS011;55925;51.764;6.402;2023-04-29T08:31:16;26.10;;;13.18;;
68886;SDS011;55925;51.764;6.402;2023-04-29T08:33:43;26.23;;;13.10;;
68886;SDS011;55925;51.764;6.402;2023-04-29T08:36:09;23.30;;;13.02;;
68886;SDS011;55925;51.764;6.402;2023-04-29T08:38:35;24.15;;;12.18;;
68886;SDS011;55925;51.764;6.402;2023-04-29T08:41:01;22.65;;;13.05;;
68886;SDS011;55925;51.764;6.402;2023-04-29T08:43:27;24.42;;;12.75;;
68886;SDS011;55925;51.764;6.402;2023-04-29T08:45:53;24.25;;;12.45;;
68886;SDS011;55925;51.764;6.402;2023-04-29T08:48:19;24.52;;;12.40;;
68886;SDS011;55925;51.764;6.402;2023-04-29T08:50:45;27.77;;;12.55;;
68886;SDS011;55925;51.764;6.402;2023-04-29T08:53:12;23.10;;;11.52;;
68886;SDS011;55925;51.764;6.402;2023-04-29T08:55:42;26.17;;;12.52;;
68886;SDS011;55925;51.764;6.402;2023-04-29T08:58:09;23.27;;;12.30;;
68886;SDS011;55925;51.764;6.402;2023-04-29T09:00:36;23.50;;;12.60;;
68886;SDS011;55925;51.764;6.402;2023-04-29T09:03:03;24.45;;;11.95;;
68886;SDS011;55925;51.764;6.402;2023-04-29T09:05:36;26.80;;;12.63;;
68886;SDS011;55925;51.764;6.402;2023-04-29T09:08:03;25.00;;;12.73;;
68886;SDS011;55925;51.764;6.402;2023-04-29T09:10:29;26.80;;;11.27;;
68886;SDS011;55925;51.764;6.402;2023-04-29T09:12:56;22.80;;;12.50;;
68886;SDS011;55925;51.764;6.402;2023-04-29T09:15:22;25.55;;;11.05;;
68886;SDS011;55925;51.764;6.402;2023-04-29T09:17:48;21.67;;;11.25;;
68886;SDS011;55925;51.764;6.402;2023-04-29T09:22:47;22.58;;;12.52;;
68886;SDS011;55925;51.764;6.402;2023-04-29T09:25:13;22.20;;;11.98;;
68886;SDS011;55925;51.764;6.402;2023-04-29T09:27:39;26.05;;;12.18;;
68886;SDS011;55925;51.764;6.402;2023-04-29T09:30:06;21.77;;;11.65;;
68886;SDS011;55925;51.764;6.402;2023-04-29T09:32:33;19.83;;;11.25;;
68886;SDS011;55925;51.764;6.402;2023-04-29T09:37:44;20.63;;;11.68;;
68886;SDS011;55925;51.764;6.402;2023-04-29T09:40:31;24.05;;;11.75;;
68886;SDS011;55925;51.764;6.402;2023-04-29T09:42:57;20.98;;;12.13;;
68886;SDS011;55925;51.764;6.402;2023-04-29T09:48:02;24.67;;;11.38;;
68886;SDS011;55925;51.764;6.402;2023-04-29T09:50:29;19.52;;;10.55;;
68886;SDS011;55925;51.764;6.402;2023-04-29T09:52:56;23.23;;;11.40;;
68886;SDS011;55925;51.764;6.402;2023-04-29T09:55:22;20.73;;;10.77;;
68886;SDS011;55925;51.764;6.402;2023-04-29T09:57:48;18.98;;;10.43;;
68886;SDS011;55925;51.764;6.402;2023-04-29T10:00:14;19.20;;;10.20;;
68886;SDS011;55925;51.764;6.402;2023-04-29T10:02:41;20.58;;;10.32;;
68886;SDS011;55925;51.764;6.402;2023-04-29T10:05:07;18.50;;;10.50;;
68886;SDS011;55925;51.764;6.402;2023-04-29T10:07:34;19.60;;;10.38;;
68886;SDS011;55925;51.764;6.402;2023-04-29T10:10:04;20.33;;;9.38;;
68886;SDS011;55925;51.764;6.402;2023-04-29T10:12:32;18.23;;;10.25;;
68886;SDS011;55925;51.764;6.402;2023-04-29T10:15:03;17.67;;;9.13;;
68886;SDS011;55925;51.764;6.402;2023-04-29T10:17:43;18.75;;;10.27;;
68886;SDS011;55925;51.764;6.402;2023-04-29T10:20:14;17.40;;;9.18;;
68886;SDS011;55925;51.764;6.402;2023-04-29T10:22:47;14.88;;;7.97;;
68886;SDS011;55925;51.764;6.402;2023-04-29T10:25:17;18.52;;;8.68;;
68886;SDS011;55925;51.764;6.402;2023-04-29T10:27:44;15.68;;;9.13;;
68886;SDS011;55925;51.764;6.402;2023-04-29T10:30:14;15.50;;;9.10;;
68886;SDS011;55925;51.764;6.402;2023-04-29T10:32:40;17.42;;;9.52;;
68886;SDS011;55925;51.764;6.402;2023-04-29T10:35:07;14.65;;;9.23;;
68886;SDS011;55925;51.764;6.402;2023-04-29T10:37:38;17.30;;;9.35;;
68886;SDS011;55925;51.764;6.402;2023-04-29T10:42:50;15.70;;;8.63;;
68886;SDS011;55925;51.764;6.402;2023-04-29T10:53:14;15.85;;;8.13;;
68886;SDS011;55925;51.764;6.402;2023-04-29T10:55:40;12.50;;;7.57;;
68886;SDS011;55925;51.764;6.402;2023-04-29T11:00:51;14.00;;;8.35;;
68886;SDS011;55925;51.764;6.402;2023-04-29T11:06:07;15.82;;;8.10;;
68886;SDS011;55925;51.764;6.402;2023-04-29T11:08:36;14.27;;;8.75;;
68886;SDS011;55925;51.764;6.402;2023-04-29T11:11:03;17.70;;;8.60;;
68886;SDS011;55925;51.764;6.402;2023-04-29T11:13:31;18.00;;;9.23;;
68886;SDS011;55925;51.764;6.402;2023-04-29T11:18:31;14.60;;;8.85;;
68886;SDS011;55925;51.764;6.402;2023-04-29T11:23:37;16.17;;;9.02;;
68886;SDS011;55925;51.764;6.402;2023-04-29T11:26:09;18.27;;;9.68;;
68886;SDS011;55925;51.764;6.402;2023-04-29T11:28:35;15.90;;;9.07;;
68886;SDS011;55925;51.764;6.402;2023-04-29T11:31:01;12.50;;;7.35;;
68886;SDS011;55925;51.764;6.402;2023-04-29T11:33:30;14.70;;;8.30;;
68886;SDS011;55925;51.764;6.402;2023-04-29T11:35:56;13.25;;;7.68;;
68886;SDS011;55925;51.764;6.402;2023-04-29T11:38:26;13.90;;;8.15;;
68886;SDS011;55925;51.764;6.402;2023-04-29T11:40:53;17.65;;;8.05;;
68886;SDS011;55925;51.764;6.402;2023-04-29T11:43:20;14.13;;;8.30;;
68886;SDS011;55925;51.764;6.402;2023-04-29T11:45:47;15.82;;;8.52;;
68886;SDS011;55925;51.764;6.402;2023-04-29T11:48:16;17.13;;;9.45;;
68886;SDS011;55925;51.764;6.402;2023-04-29T11:50:43;12.80;;;7.47;;
68886;SDS011;55925;51.764;6.402;2023-04-29T11:53:10;14.18;;;7.63;;
68886;SDS011;55925;51.764;6.402;2023-04-29T11:55:36;17.65;;;8.02;;
68886;SDS011;55925;51.764;6.402;2023-04-29T11:58:05;15.85;;;7.80;;
68886;SDS011;55925;51.764;6.402;2023-04-29T12:00:31;12.90;;;7.43;;
68886;SDS011;55925;51.764;6.402;2023-04-29T12:02:57;12.23;;;7.55;;
68886;SDS011;55925;51.764;6.402;2023-04-29T12:05:26;12.75;;;7.18;;
68886;SDS011;55925;51.764;6.402;2023-04-29T12:07:55;13.43;;;6.80;;
68886;SDS011;55925;51.764;6.402;2023-04-29T12:10:21;12.10;;;6.40;;
68886;SDS011;55925;51.764;6.402;2023-04-29T12:12:47;13.05;;;7.38;;
68886;SDS011;55925;51.764;6.402;2023-04-29T12:15:14;13.45;;;7.47;;
68886;SDS011;55925;51.764;6.402;2023-04-29T12:17:40;14.40;;;7.20;;
68886;SDS011;55925;51.764;6.402;2023-04-29T12:20:07;11.40;;;6.85;;
68886;SDS011;55925;51.764;6.402;2023-04-29T12:22:34;13.50;;;7.75;;
68886;SDS011;55925;51.764;6.402;2023-04-29T12:25:04;12.65;;;6.05;;
68886;SDS011;55925;51.764;6.402;2023-04-29T12:27:31;18.00;;;7.63;;
68886;SDS011;55925;51.764;6.402;2023-04-29T12:30:00;13.65;;;7.68;;
68886;SDS011;55925;51.764;6.402;2023-04-29T12:32:26;12.45;;;6.65;;
68886;SDS011;55925;51.764;6.402;2023-04-29T12:34:52;14.02;;;7.18;;
68886;SDS011;55925;51.764;6.402;2023-04-29T12:37:20;13.80;;;6.50;;
68886;SDS011;55925;51.764;6.402;2023-04-29T12:39:50;10.52;;;6.18;;
68886;SDS011;55925;51.764;6.402;2023-04-29T12:42:16;11.40;;;6.32;;
68886;SDS011;55925;51.764;6.402;2023-04-29T12:44:46;12.35;;;6.72;;
68886;SDS011;55925;51.764;6.402;2023-04-29T12:47:12;10.90;;;6.40;;
68886;SDS011;55925;51.764;6.402;2023-04-29T12:49:42;11.95;;;6.43;;
68886;SDS011;55925;51.764;6.402;2023-04-29T12:52:08;11.38;;;5.80;;
68886;SDS011;55925;51.764;6.402;2023-04-29T12:54:35;10.77;;;6.47;;
68886;SDS011;55925;51.764;6.402;2023-04-29T12:57:02;10.25;;;6.00;;
68886;SDS011;55925;51.764;6.402;2023-04-29T12:59:28;13.52;;;6.40;;
68886;SDS011;55925;51.764;6.402;2023-04-29T13:01:54;10.63;;;6.25;;
68886;SDS011;55925;51.764;6.402;2023-04-29T13:04:20;10.88;;;5.97;;
68886;SDS011;55925;51.764;6.402;2023-04-29T13:06:46;11.32;;;7.00;;
68886;SDS011;55925;51.764;6.402;2023-04-29T13:09:12;9.82;;;5.75;;
68886;SDS011;55925;51.764;6.402;2023-04-29T13:11:38;12.07;;;6.97;;
68886;SDS011;55925;51.764;6.402;2023-04-29T13:14:04;13.50;;;6.88;;
68886;SDS011;55925;51.764;6.402;2023-04-29T13:16:34;12.05;;;6.75;;
68886;SDS011;55925;51.764;6.402;2023-04-29T13:19:00;11.70;;;7.15;;
68886;SDS011;55925;51.764;6.402;2023-04-29T13:21:26;10.25;;;7.07;;
68886;SDS011;55925;51.764;6.402;2023-04-29T13:23:53;11.60;;;5.72;;
68886;SDS011;55925;51.764;6.402;2023-04-29T13:26:19;11.07;;;5.40;;
68886;SDS011;55925;51.764;6.402;2023-04-29T13:28:45;10.35;;;5.10;;
68886;SDS011;55925;51.764;6.402;2023-04-29T13:31:11;8.60;;;5.25;;
68886;SDS011;55925;51.764;6.402;2023-04-29T13:33:37;9.93;;;5.10;;
68886;SDS011;55925;51.764;6.402;2023-04-29T13:36:03;8.60;;;5.30;;
68886;SDS011;55925;51.764;6.402;2023-04-29T13:38:29;10.75;;;5.43;;
68886;SDS011;55925;51.764;6.402;2023-04-29T13:40:56;10.48;;;5.68;;
68886;SDS011;55925;51.764;6.402;2023-04-29T13:43:22;10.38;;;5.38;;
68886;SDS011;55925;51.764;6.402;2023-04-29T13:45:48;11.00;;;5.57;;
68886;SDS011;55925;51.764;6.402;2023-04-29T13:48:15;8.00;;;4.60;;
68886;SDS011;55925;51.764;6.402;2023-04-29T13:50:41;9.25;;;4.88;;
68886;SDS011;55925;51.764;6.402;2023-04-29T13:53:09;6.82;;;4.40;;
68886;SDS011;55925;51.764;6.402;2023-04-29T13:55:35;9.05;;;4.25;;
68886;SDS011;55925;51.764;6.402;2023-04-29T13:58:01;7.75;;;4.78;;
68886;SDS011;55925;51.764;6.402;2023-04-29T14:00:27;6.68;;;3.60;;
68886;SDS011;55925;51.764;6.402;2023-04-29T14:02:53;7.78;;;4.18;;
68886;SDS011;55925;51.764;6.402;2023-04-29T14:05:19;7.82;;;4.40;;
68886;SDS011;55925;51.764;6.402;2023-04-29T14:07:45;8.85;;;4.32;;
68886;SDS011;55925;51.764;6.402;2023-04-29T14:10:11;7.72;;;3.85;;
68886;SDS011;55925;51.764;6.402;2023-04-29T14:12:37;10.50;;;4.80;;
68886;SDS011;55925;51.764;6.402;2023-04-29T14:15:03;9.98;;;4.65;;
68886;SDS011;55925;51.764;6.402;2023-04-29T14:17:30;8.05;;;4.10;;
68886;SDS011;55925;51.764;6.402;2023-04-29T14:19:56;7.22;;;4.57;;
68886;SDS011;55925;51.764;6.402;2023-04-29T14:22:22;9.45;;;4.53;;
68886;SDS011;55925;51.764;6.402;2023-04-29T14:24:48;9.15;;;4.50;;
68886;SDS011;55925;51.764;6.402;2023-04-29T14:27:15;7.53;;;4.03;;
68886;SDS011;55925;51.764;6.402;2023-04-29T14:29:41;8.48;;;4.50;;
68886;SDS011;55925;51.764;6.402;2023-04-29T14:32:07;7.40;;;4.10;;
68886;SDS011;55925;51.764;6.402;2023-04-29T14:34:33;6.60;;;3.90;;
68886;SDS011;55925;51.764;6.402;2023-04-29T14:36:59;7.60;;;4.00;;
68886;SDS011;55925;51.764;6.402;2023-04-29T14:39:25;8.18;;;4.10;;
68886;SDS011;55925;51.764;6.402;2023-04-29T14:41:51;6.85;;;4.10;;
68886;SDS011;55925;51.764;6.402;2023-04-29T14:44:17;6.97;;;4.13;;
68886;SDS011;55925;51.764;6.402;2023-04-29T14:46:43;8.93;;;4.05;;
68886;SDS011;55925;51.764;6.402;2023-04-29T14:49:09;8.63;;;4.80;;
68886;SDS011;55925;51.764;6.402;2023-04-29T14:51:35;9.57;;;4.05;;
68886;SDS011;55925;51.764;6.402;2023-04-29T14:54:01;8.57;;;4.20;;
68886;SDS011;55925;51.764;6.402;2023-04-29T14:56:27;12.60;;;5.40;;
68886;SDS011;55925;51.764;6.402;2023-04-29T14:58:53;12.82;;;5.07;;
68886;SDS011;55925;51.764;6.402;2023-04-29T15:01:19;9.75;;;5.25;;
68886;SDS011;55925;51.764;6.402;2023-04-29T15:03:45;12.27;;;4.70;;
68886;SDS011;55925;51.764;6.402;2023-04-29T15:06:11;9.98;;;4.47;;
68886;SDS011;55925;51.764;6.402;2023-04-29T15:08:38;8.52;;;4.53;;